sensor_id;sensor_type;location;lat;lon;timestamp;temperature;humidity
52073;DHT22;38074;51.232;6.826;2023-08-08T00:00:17;24.80;51.70
52073;DHT22;38074;51.232;6.826;2023-08-08T00:07:33;24.80;51.70
52073;DHT22;38074;51.232;6.826;2023-08-08T00:14:49;24.80;51.70
52073;DHT22;38074;51.232;6.826;2023-08-08T00:22:04;24.80;51.70
52073;DHT22;38074;51.232;6.826;2023-08-08T00:29:20;24.80;51.70
52073;DHT22;38074;51.232;6.826;2023-08-08T00:36:35;24.70;51.70
52073;DHT22;38074;51.232;6.826;2023-08-08T00:43:51;24.70;51.70
52073;DHT22;38074;51.232;6.826;2023-08-08T00:51:06;24.70;51.70
52073;DHT22;38074;51.232;6.826;2023-08-08T00:58:22;24.70;51.70
52073;DHT22;38074;51.232;6.826;2023-08-08T01:05:38;24.70;51.70
52073;DHT22;38074;51.232;6.826;2023-08-08T01:12:59;24.70;51.70
52073;DHT22;38074;51.232;6.826;2023-08-08T01:20:15;24.70;51.70
52073;DHT22;38074;51.232;6.826;2023-08-08T01:27:32;24.70;51.70
52073;DHT22;38074;51.232;6.826;2023-08-08T01:34:47;24.70;51.70
52073;DHT22;38074;51.232;6.826;2023-08-08T01:42:03;24.70;51.70
52073;DHT22;38074;51.232;6.826;2023-08-08T01:49:19;24.70;51.70
52073;DHT22;38074;51.232;6.826;2023-08-08T01:56:35;24.70;51.70
52073;DHT22;38074;51.232;6.826;2023-08-08T02:03:50;24.70;51.70
52073;DHT22;38074;51.232;6.826;2023-08-08T02:11:06;24.70;51.70
52073;DHT22;38074;51.232;6.826;2023-08-08T02:18:21;24.70;51.70
52073;DHT22;38074;51.232;6.826;2023-08-08T02:25:36;24.70;51.70
52073;DHT22;38074;51.232;6.826;2023-08-08T02:32:52;24.70;51.60
52073;DHT22;38074;51.232;6.826;2023-08-08T02:40:07;24.70;51.70
52073;DHT22;38074;51.232;6.826;2023-08-08T02:47:24;24.70;51.70
52073;DHT22;38074;51.232;6.826;2023-08-08T02:54:40;24.70;51.60
52073;DHT22;38074;51.232;6.826;2023-08-08T03:01:55;24.70;51.70
52073;DHT22;38074;51.232;6.826;2023-08-08T03:09:11;24.70;51.70
52073;DHT22;38074;51.232;6.826;2023-08-08T03:16:26;24.70;51.70
52073;DHT22;38074;51.232;6.826;2023-08-08T03:23:42;24.70;51.70
52073;DHT22;38074;51.232;6.826;2023-08-08T03:30:57;24.70;51.70
52073;DHT22;38074;51.232;6.826;2023-08-08T03:38:13;24.70;51.70
52073;DHT22;38074;51.232;6.826;2023-08-08T03:45:29;24.60;51.60
52073;DHT22;38074;51.232;6.826;2023-08-08T03:52:44;24.70;51.70
52073;DHT22;38074;51.232;6.826;2023-08-08T03:59:59;24.70;51.70
52073;DHT22;38074;51.232;6.826;2023-08-08T04:07:15;24.70;51.70
52073;DHT22;38074;51.232;6.826;2023-08-08T04:14:30;24.70;51.70
52073;DHT22;38074;51.232;6.826;2023-08-08T04:21:46;24.60;51.70
52073;DHT22;38074;51.232;6.826;2023-08-08T04:29:01;24.70;51.70
52073;DHT22;38074;51.232;6.826;2023-08-08T04:36:18;24.70;51.70
52073;DHT22;38074;51.232;6.826;2023-08-08T04:43:33;24.70;51.80
52073;DHT22;38074;51.232;6.826;2023-08-08T04:50:49;24.70;51.80
52073;DHT22;38074;51.232;6.826;2023-08-08T04:58:04;24.60;51.70
52073;DHT22;38074;51.232;6.826;2023-08-08T05:05:20;24.70;51.80
52073;DHT22;38074;51.232;6.826;2023-08-08T05:12:35;24.60;51.80
52073;DHT22;38074;51.232;6.826;2023-08-08T05:19:51;24.70;51.80
52073;DHT22;38074;51.232;6.826;2023-08-08T05:27:06;24.60;51.80
52073;DHT22;38074;51.232;6.826;2023-08-08T05:34:23;24.60;51.80
52073;DHT22;38074;51.232;6.826;2023-08-08T05:41:40;24.60;51.90
52073;DHT22;38074;51.232;6.826;2023-08-08T05:48:56;24.60;51.90
52073;DHT22;38074;51.232;6.826;2023-08-08T05:56:12;24.60;51.80
52073;DHT22;38074;51.232;6.826;2023-08-08T06:03:27;24.60;51.60
52073;DHT22;38074;51.232;6.826;2023-08-08T06:10:43;24.60;51.50
52073;DHT22;38074;51.232;6.826;2023-08-08T06:17:59;24.50;51.60
52073;DHT22;38074;51.232;6.826;2023-08-08T06:25:14;24.60;51.80
52073;DHT22;38074;51.232;6.826;2023-08-08T06:32:30;24.70;51.80
52073;DHT22;38074;51.232;6.826;2023-08-08T06:39:45;24.70;52.00
52073;DHT22;38074;51.232;6.826;2023-08-08T06:47:01;24.80;51.90
52073;DHT22;38074;51.232;6.826;2023-08-08T06:54:16;24.80;51.80
52073;DHT22;38074;51.232;6.826;2023-08-08T07:01:32;24.90;51.80
52073;DHT22;38074;51.232;6.826;2023-08-08T07:08:47;24.80;51.70
52073;DHT22;38074;51.232;6.826;2023-08-08T07:16:03;24.70;51.70
52073;DHT22;38074;51.232;6.826;2023-08-08T07:23:18;24.70;51.70
52073;DHT22;38074;51.232;6.826;2023-08-08T07:30:34;24.70;51.80
52073;DHT22;38074;51.232;6.826;2023-08-08T07:37:50;24.70;52.40
52073;DHT22;38074;51.232;6.826;2023-08-08T07:45:05;24.70;51.90
52073;DHT22;38074;51.232;6.826;2023-08-08T07:52:21;24.90;51.90
52073;DHT22;38074;51.232;6.826;2023-08-08T07:59:36;24.80;51.30
52073;DHT22;38074;51.232;6.826;2023-08-08T08:06:52;24.60;51.20
52073;DHT22;38074;51.232;6.826;2023-08-08T08:14:07;24.60;51.60
52073;DHT22;38074;51.232;6.826;2023-08-08T08:21:23;24.80;51.70
52073;DHT22;38074;51.232;6.826;2023-08-08T08:28:38;24.90;51.70
52073;DHT22;38074;51.232;6.826;2023-08-08T08:35:55;25.00;51.70
52073;DHT22;38074;51.232;6.826;2023-08-08T08:43:10;25.00;51.70
52073;DHT22;38074;51.232;6.826;2023-08-08T08:50:27;25.00;51.80
52073;DHT22;38074;51.232;6.826;2023-08-08T08:57:42;25.10;52.10
52073;DHT22;38074;51.232;6.826;2023-08-08T09:05:00;25.10;52.20
52073;DHT22;38074;51.232;6.826;2023-08-08T09:12:17;25.10;52.30
52073;DHT22;38074;51.232;6.826;2023-08-08T09:19:33;25.10;52.40
52073;DHT22;38074;51.232;6.826;2023-08-08T09:26:49;25.20;52.60
52073;DHT22;38074;51.232;6.826;2023-08-08T09:34:04;25.20;52.70
52073;DHT22;38074;51.232;6.826;2023-08-08T09:41:20;25.30;52.90
52073;DHT22;38074;51.232;6.826;2023-08-08T09:48:36;25.30;53.10
52073;DHT22;38074;51.232;6.826;2023-08-08T09:55:57;25.30;53.20
52073;DHT22;38074;51.232;6.826;2023-08-08T10:03:12;25.20;52.30
52073;DHT22;38074;51.232;6.826;2023-08-08T10:10:28;25.00;52.50
52073;DHT22;38074;51.232;6.826;2023-08-08T10:17:44;25.00;52.50
52073;DHT22;38074;51.232;6.826;2023-08-08T10:25:03;25.10;52.60
52073;DHT22;38074;51.232;6.826;2023-08-08T10:32:23;25.20;52.60
52073;DHT22;38074;51.232;6.826;2023-08-08T10:39:51;25.20;52.60
52073;DHT22;38074;51.232;6.826;2023-08-08T10:47:08;25.20;52.50
52073;DHT22;38074;51.232;6.826;2023-08-08T10:54:26;25.20;52.50
52073;DHT22;38074;51.232;6.826;2023-08-08T11:01:46;25.20;52.50
52073;DHT22;38074;51.232;6.826;2023-08-08T11:09:05;25.20;52.50
52073;DHT22;38074;51.232;6.826;2023-08-08T11:16:20;25.30;52.60
52073;DHT22;38074;51.232;6.826;2023-08-08T11:23:36;25.30;52.70
52073;DHT22;38074;51.232;6.826;2023-08-08T11:30:53;25.20;52.80
52073;DHT22;38074;51.232;6.826;2023-08-08T11:38:09;25.20;53.20
52073;DHT22;38074;51.232;6.826;2023-08-08T11:45:24;25.10;53.50
52073;DHT22;38074;51.232;6.826;2023-08-08T11:52:41;25.10;53.30
52073;DHT22;38074;51.232;6.826;2023-08-08T11:59:57;25.20;53.50
52073;DHT22;38074;51.232;6.826;2023-08-08T12:07:12;25.10;53.30
52073;DHT22;38074;51.232;6.826;2023-08-08T12:14:28;24.90;52.30
52073;DHT22;38074;51.232;6.826;2023-08-08T12:21:44;24.50;51.50
52073;DHT22;38074;51.232;6.826;2023-08-08T12:28:59;24.20;52.70
52073;DHT22;38074;51.232;6.826;2023-08-08T12:36:15;24.00;53.20
52073;DHT22;38074;51.232;6.826;2023-08-08T12:43:30;24.10;52.60
52073;DHT22;38074;51.232;6.826;2023-08-08T12:50:46;24.00;52.30
52073;DHT22;38074;51.232;6.826;2023-08-08T12:58:02;24.10;52.60
52073;DHT22;38074;51.232;6.826;2023-08-08T13:05:17;23.90;52.40
52073;DHT22;38074;51.232;6.826;2023-08-08T13:12:33;23.90;52.10
52073;DHT22;38074;51.232;6.826;2023-08-08T13:19:48;23.80;52.40
52073;DHT22;38074;51.232;6.826;2023-08-08T13:27:04;23.90;52.50
52073;DHT22;38074;51.232;6.826;2023-08-08T13:34:19;23.90;52.10
52073;DHT22;38074;51.232;6.826;2023-08-08T13:41:35;23.70;52.10
52073;DHT22;38074;51.232;6.826;2023-08-08T13:48:50;23.50;52.50
52073;DHT22;38074;51.232;6.826;2023-08-08T13:56:06;23.40;52.80
52073;DHT22;38074;51.232;6.826;2023-08-08T14:03:21;23.40;52.70
52073;DHT22;38074;51.232;6.826;2023-08-08T14:10:37;23.40;53.10
52073;DHT22;38074;51.232;6.826;2023-08-08T14:17:52;23.40;52.70
52073;DHT22;38074;51.232;6.826;2023-08-08T14:25:08;23.40;52.40
52073;DHT22;38074;51.232;6.826;2023-08-08T14:32:23;23.30;52.10
52073;DHT22;38074;51.232;6.826;2023-08-08T14:39:39;23.20;51.90
52073;DHT22;38074;51.232;6.826;2023-08-08T14:46:54;23.30;52.50
52073;DHT22;38074;51.232;6.826;2023-08-08T14:54:10;23.50;52.60
52073;DHT22;38074;51.232;6.826;2023-08-08T15:01:25;23.70;51.90
52073;DHT22;38074;51.232;6.826;2023-08-08T15:08:41;23.70;52.40
52073;DHT22;38074;51.232;6.826;2023-08-08T15:15:57;23.80;52.60
52073;DHT22;38074;51.232;6.826;2023-08-08T15:23:13;23.80;52.10
52073;DHT22;38074;51.232;6.826;2023-08-08T15:30:29;23.80;51.80
52073;DHT22;38074;51.232;6.826;2023-08-08T15:37:44;23.80;51.30
52073;DHT22;38074;51.232;6.826;2023-08-08T15:45:00;23.70;51.20
52073;DHT22;38074;51.232;6.826;2023-08-08T15:52:16;23.90;51.20
52073;DHT22;38074;51.232;6.826;2023-08-08T15:59:31;23.90;50.10
52073;DHT22;38074;51.232;6.826;2023-08-08T16:06:47;24.00;50.80
52073;DHT22;38074;51.232;6.826;2023-08-08T16:14:03;23.90;50.40
52073;DHT22;38074;51.232;6.826;2023-08-08T16:21:18;24.10;50.50
52073;DHT22;38074;51.232;6.826;2023-08-08T16:28:34;24.20;49.90
52073;DHT22;38074;51.232;6.826;2023-08-08T16:35:51;24.20;49.70
52073;DHT22;38074;51.232;6.826;2023-08-08T16:43:06;24.20;50.40
52073;DHT22;38074;51.232;6.826;2023-08-08T16:50:23;24.30;49.50
52073;DHT22;38074;51.232;6.826;2023-08-08T16:57:38;24.30;49.30
52073;DHT22;38074;51.232;6.826;2023-08-08T17:04:54;24.40;49.20
52073;DHT22;38074;51.232;6.826;2023-08-08T17:12:09;24.40;49.10
52073;DHT22;38074;51.232;6.826;2023-08-08T17:19:24;24.40;48.50
52073;DHT22;38074;51.232;6.826;2023-08-08T17:26:40;24.30;48.90
52073;DHT22;38074;51.232;6.826;2023-08-08T17:33:55;24.30;49.10
52073;DHT22;38074;51.232;6.826;2023-08-08T17:41:13;24.40;49.30
52073;DHT22;38074;51.232;6.826;2023-08-08T17:48:29;24.40;49.30
52073;DHT22;38074;51.232;6.826;2023-08-08T17:55:45;24.50;49.50
52073;DHT22;38074;51.232;6.826;2023-08-08T18:03:00;24.50;49.60
52073;DHT22;38074;51.232;6.826;2023-08-08T18:10:16;24.50;49.50
52073;DHT22;38074;51.232;6.826;2023-08-08T18:17:31;24.40;49.80
52073;DHT22;38074;51.232;6.826;2023-08-08T18:24:47;24.50;50.10
52073;DHT22;38074;51.232;6.826;2023-08-08T18:32:02;24.40;50.40
52073;DHT22;38074;51.232;6.826;2023-08-08T18:39:18;24.40;50.50
52073;DHT22;38074;51.232;6.826;2023-08-08T18:46:34;24.40;50.60
52073;DHT22;38074;51.232;6.826;2023-08-08T18:53:49;24.30;49.90
52073;DHT22;38074;51.232;6.826;2023-08-08T19:01:05;24.30;50.80
52073;DHT22;38074;51.232;6.826;2023-08-08T19:08:20;24.30;50.90
52073;DHT22;38074;51.232;6.826;2023-08-08T19:15:36;24.30;51.60
52073;DHT22;38074;51.232;6.826;2023-08-08T19:22:51;24.40;51.80
52073;DHT22;38074;51.232;6.826;2023-08-08T19:30:07;24.40;51.80
52073;DHT22;38074;51.232;6.826;2023-08-08T19:37:23;24.40;52.00
52073;DHT22;38074;51.232;6.826;2023-08-08T19:44:39;24.50;52.20
52073;DHT22;38074;51.232;6.826;2023-08-08T19:51:54;24.50;52.20
52073;DHT22;38074;51.232;6.826;2023-08-08T19:59:10;24.60;52.20
52073;DHT22;38074;51.232;6.826;2023-08-08T20:06:25;24.60;52.10
52073;DHT22;38074;51.232;6.826;2023-08-08T20:13:41;24.60;52.20
52073;DHT22;38074;51.232;6.826;2023-08-08T20:20:57;24.70;52.30
52073;DHT22;38074;51.232;6.826;2023-08-08T20:28:12;24.70;52.30
52073;DHT22;38074;51.232;6.826;2023-08-08T20:35:28;24.70;52.50
52073;DHT22;38074;51.232;6.826;2023-08-08T20:42:43;24.70;52.60
52073;DHT22;38074;51.232;6.826;2023-08-08T20:49:59;24.80;52.80
52073;DHT22;38074;51.232;6.826;2023-08-08T20:57:14;24.80;53.00
52073;DHT22;38074;51.232;6.826;2023-08-08T21:04:30;24.70;53.10
52073;DHT22;38074;51.232;6.826;2023-08-08T21:11:45;24.70;53.40
52073;DHT22;38074;51.232;6.826;2023-08-08T21:19:01;24.60;53.70
52073;DHT22;38074;51.232;6.826;2023-08-08T21:26:17;24.60;53.80
52073;DHT22;38074;51.232;6.826;2023-08-08T21:33:32;24.60;54.10
52073;DHT22;38074;51.232;6.826;2023-08-08T21:40:48;24.60;54.20
52073;DHT22;38074;51.232;6.826;2023-08-08T21:48:03;24.50;54.30
52073;DHT22;38074;51.232;6.826;2023-08-08T21:55:19;24.50;54.30
52073;DHT22;38074;51.232;6.826;2023-08-08T22:02:35;24.50;54.30
52073;DHT22;38074;51.232;6.826;2023-08-08T22:09:50;24.50;54.50
52073;DHT22;38074;51.232;6.826;2023-08-08T22:17:05;24.40;54.50
52073;DHT22;38074;51.232;6.826;2023-08-08T22:24:21;24.40;54.70
52073;DHT22;38074;51.232;6.826;2023-08-08T22:31:36;24.40;54.60
52073;DHT22;38074;51.232;6.826;2023-08-08T22:38:52;24.40;54.80
52073;DHT22;38074;51.232;6.826;2023-08-08T22:46:07;24.40;54.90
52073;DHT22;38074;51.232;6.826;2023-08-08T22:53:23;24.40;55.00
52073;DHT22;38074;51.232;6.826;2023-08-08T23:00:38;24.40;55.00
52073;DHT22;38074;51.232;6.826;2023-08-08T23:07:54;24.40;55.10
52073;DHT22;38074;51.232;6.826;2023-08-08T23:15:09;24.40;55.30
52073;DHT22;38074;51.232;6.826;2023-08-08T23:22:24;24.40;55.20
52073;DHT22;38074;51.232;6.826;2023-08-08T23:29:40;24.40;55.40
52073;DHT22;38074;51.232;6.826;2023-08-08T23:36:55;24.30;55.40
52073;DHT22;38074;51.232;6.826;2023-08-08T23:44:11;24.30;55.40
52073;DHT22;38074;51.232;6.826;2023-08-08T23:51:26;24.30;55.60
52073;DHT22;38074;51.232;6.826;2023-08-08T23:58:42;24.30;55.70
